KABE/ABE METAR and TAF weather

Enter ICAO airport designator
Station Type Date Time Source
KABE METAR 2018/01/19 22:51 UTC NOAA

KABE 192251Z 23005KT 10SM CLR M01/M08 A2998 RMK AO2 SLP159 T10061078


Station Type Date Time Source
KABE Decoded METAR 2018/01/19 22:51 UTC NOAA

LEHIGH VALLEY INTERNATIONAL AIRPORT, PA, United States (KABE) 40-39N 075-27W 114M
Jan 19, 2018 - 05:51 PM EST / 2018.01.19 2251 UTC
Wind: from the SW (230 degrees) at 6 MPH (5 KT):0
Visibility: 10 mile(s):0
Sky conditions: clear
Temperature: 30.9 F (-0.6 C)
Windchill: 24 F (-4 C):1
Dew Point: 18.0 F (-7.8 C)
Relative Humidity: 58%
Pressure (altimeter): 29.98 in. Hg (1015 hPa)
ob: KABE 192251Z 23005KT 10SM CLR M01/M08 A2998 RMK AO2 SLP159 T10061078
cycle: 23

Station Type Date Time Source
KABE TAF 2018/01/19 21:39 UTC NOAA

TAF
AMD KABE 192037Z 1921/2018 23011KT P6SM FEW150
FM201500 26008KT P6SM SKC


Example: see airport list